Impacts METAR Board
IDs:

KDFW - Dallas-Ft Worth Intl, TX, US

Updated at: 2100 UTC 02 Oct 2022
Potential Impact None Slight Moderate High
Time 02/09Z 02/10Z 02/11Z 02/12Z 02/13Z 02/14Z 02/15Z 02/16Z 02/17Z 02/18Z 02/19Z 02/20Z 02/21Z
Temp62 57 60 59 60 65 70 74 77 78 81 82 83
Dewpt46 46 46 47 48 52 48 48 48 45 45 44 43
Altim30.10 30.11 30.13 30.15 30.17 30.19 30.21 30.22 30.21 30.19 30.16 30.13 30.11
VIS10 10 10 10 10 10 10 10 10 10 10 10 10
CIG-- -- -- -- -- -- -- -- -- -- -- -- --
CoverCLRCLRCLRCLRCLRCLRFEWCLRCLRCLRCLRFEWFEW
FltCatVFRVFRVFRVFRVFRVFRVFRVFRVFRVFRVFRVFRVFR
WX--------------------------
WDir3600035034000100040050
WSpd3 0 0 4 3 0 0 4 0 7 3 6
WGst-- -- -- -- -- -- -- -- -- -- -- -- --
Raw hourly METARs
KDFW 020853Z 36003KT 10SM CLR 17/08 A3010 RMK AO2 SLP186 T01670078 51005
KDFW 020953Z 00000KT 10SM CLR 14/08 A3011 RMK AO2 SLP189 T01390078
KDFW 021053Z 00000KT 10SM CLR 16/08 A3013 RMK AO2 SLP195 T01560078
KDFW 021153Z 35004KT 10SM CLR 15/08 A3015 RMK AO2 SLP203 T01500083 10183 20139 53016
KDFW 021253Z 34003KT 10SM CLR 16/09 A3017 RMK AO2 SLP210 T01560089
KDFW 021353Z 00000KT 10SM CLR 18/11 A3019 RMK AO2 SLP216 T01830111
KDFW 021453Z 00000KT 10SM FEW250 21/09 A3021 RMK AO2 SLP224 T02110089 53021
KDFW 021553Z 10004KT 10SM CLR 23/09 A3022 RMK AO2 SLP226 T02330089
KDFW 021653Z 10SM CLR 25/09 A3021 RMK AO2 SLP223 T02500089
KDFW 021753Z 00000KT 10SM CLR 26/07 A3019 RMK AO2 SLP215 T02560072 10261 20139 58008
KDFW 021853Z 04007KT 010V110 10SM CLR 27/07 A3016 RMK AO2 SLP206 T02720072
KDFW 021953Z VRB03KT 10SM FEW250 28/07 A3013 RMK AO2 SLP195 T02780067
KDFW 022053Z 05006KT 10SM FEW250 28/06 A3011 RMK AO2 SLP188 T02830061 56026



Page loaded:  21:55 UTC  |   02:55 PM Pacific  |   03:55 PM Mountain  |   04:55 PM Central  |   05:55 PM Eastern

 

ADVISORIES

FORECASTS

FORECASTS

OBSERVATIONS

USER TOOLS

ABOUT US